Filskov, Denmark
Current Conditions -  °F | °C
As of 9:20 AM on Monday 24 Nov 2014 (Local Time) from EKBI Reporting Station
Broken Clouds Broken Clouds  
Wind Chill: 40°   Ceiling: 9800
Heat Index: 43°   Visibility: 6mi
Dew Point: 41°   Wind: 5mph
Humidity: 93%   Direction: 260°W
Pressure: 29.97"   Gusts: NA
Location:  55.81°N, 9.02°E
Report Text: EKBI 240820Z AUTO 26004KT 9999NDV FEW035/// BKN098///06/05 Q1015
Loading
Personal Weather Stations






























Interactive Weather Map New forecast layout! Learn more

10-Day Weather Forecast

Advertisements
Track Severe Weather on mobile